sensor_id;sensor_type;location;lat;lon;timestamp;pressure;altitude;pressure_sealevel;temperature;humidity
45441;BME280;31189;38.790;-77.084;2023-07-13T00:01:18;101041.73;;;35.78;27.59
45441;BME280;31189;38.790;-77.084;2023-07-13T00:03:44;101038.12;;;35.86;28.35
45441;BME280;31189;38.790;-77.084;2023-07-13T00:06:10;101034.04;;;35.51;28.49
45441;BME280;31189;38.790;-77.084;2023-07-13T00:08:36;101033.24;;;35.69;28.70
45441;BME280;31189;38.790;-77.084;2023-07-13T00:11:01;101032.19;;;34.85;29.09
45441;BME280;31189;38.790;-77.084;2023-07-13T00:13:27;101031.35;;;34.71;29.20
45441;BME280;31189;38.790;-77.084;2023-07-13T00:15:52;101030.57;;;35.05;29.15
45441;BME280;31189;38.790;-77.084;2023-07-13T00:18:17;101030.51;;;35.22;29.16
45441;BME280;31189;38.790;-77.084;2023-07-13T00:20:43;101031.24;;;34.84;29.40
45441;BME280;31189;38.790;-77.084;2023-07-13T00:23:08;101036.72;;;35.03;29.48
45441;BME280;31189;38.790;-77.084;2023-07-13T00:25:34;101036.94;;;35.07;29.68
45441;BME280;31189;38.790;-77.084;2023-07-13T00:28:00;101036.11;;;34.60;29.95
45441;BME280;31189;38.790;-77.084;2023-07-13T00:30:25;101031.73;;;34.65;29.80
45441;BME280;31189;38.790;-77.084;2023-07-13T00:32:51;101031.31;;;34.25;30.29
45441;BME280;31189;38.790;-77.084;2023-07-13T00:35:17;101035.15;;;34.62;30.18
45441;BME280;31189;38.790;-77.084;2023-07-13T00:37:42;101037.91;;;34.19;30.81
45441;BME280;31189;38.790;-77.084;2023-07-13T00:40:09;101034.91;;;33.87;31.14
45441;BME280;31189;38.790;-77.084;2023-07-13T00:42:34;101028.16;;;34.74;30.85
45441;BME280;31189;38.790;-77.084;2023-07-13T00:45:04;101026.79;;;34.37;31.03
45441;BME280;31189;38.790;-77.084;2023-07-13T00:47:25;101026.12;;;34.64;31.05
45441;BME280;31189;38.790;-77.084;2023-07-13T00:49:50;101029.13;;;34.37;31.03
45441;BME280;31189;38.790;-77.084;2023-07-13T00:52:16;101034.42;;;34.34;31.03
45441;BME280;31189;38.790;-77.084;2023-07-13T00:54:44;101038.50;;;34.33;31.30
45441;BME280;31189;38.790;-77.084;2023-07-13T00:57:09;101036.72;;;34.24;31.12
45441;BME280;31189;38.790;-77.084;2023-07-13T00:59:32;101036.76;;;34.35;31.05
45441;BME280;31189;38.790;-77.084;2023-07-13T01:01:57;101034.26;;;34.23;31.16
45441;BME280;31189;38.790;-77.084;2023-07-13T01:04:24;101032.46;;;34.24;31.25
45441;BME280;31189;38.790;-77.084;2023-07-13T01:06:48;101029.89;;;33.96;31.55
45441;BME280;31189;38.790;-77.084;2023-07-13T01:09:14;101030.84;;;33.86;31.81
45441;BME280;31189;38.790;-77.084;2023-07-13T01:11:39;101030.77;;;34.02;31.79
45441;BME280;31189;38.790;-77.084;2023-07-13T01:14:04;101032.61;;;33.81;31.80
45441;BME280;31189;38.790;-77.084;2023-07-13T01:16:31;101032.06;;;33.73;31.88
45441;BME280;31189;38.790;-77.084;2023-07-13T01:18:55;101035.55;;;33.75;32.11
45441;BME280;31189;38.790;-77.084;2023-07-13T01:21:20;101042.41;;;33.51;32.07
45441;BME280;31189;38.790;-77.084;2023-07-13T01:23:46;101042.25;;;33.73;32.05
45441;BME280;31189;38.790;-77.084;2023-07-13T01:26:11;101043.71;;;33.57;32.18
45441;BME280;31189;38.790;-77.084;2023-07-13T01:28:36;101041.66;;;33.62;32.41
45441;BME280;31189;38.790;-77.084;2023-07-13T01:31:02;101035.48;;;33.53;32.60
45441;BME280;31189;38.790;-77.084;2023-07-13T01:33:27;101036.24;;;33.63;32.72
45441;BME280;31189;38.790;-77.084;2023-07-13T01:35:53;101039.05;;;33.69;33.05
45441;BME280;31189;38.790;-77.084;2023-07-13T01:38:21;101046.26;;;33.06;33.35
45441;BME280;31189;38.790;-77.084;2023-07-13T01:40:44;101047.21;;;33.21;33.50
45441;BME280;31189;38.790;-77.084;2023-07-13T01:43:09;101049.14;;;31.82;34.79
45441;BME280;31189;38.790;-77.084;2023-07-13T01:45:34;101052.52;;;33.16;33.64
45441;BME280;31189;38.790;-77.084;2023-07-13T01:48:00;101049.70;;;33.26;33.64
45441;BME280;31189;38.790;-77.084;2023-07-13T01:50:25;101049.69;;;33.31;33.47
45441;BME280;31189;38.790;-77.084;2023-07-13T01:52:51;101056.02;;;33.32;33.62
45441;BME280;31189;38.790;-77.084;2023-07-13T01:55:16;101062.77;;;33.36;33.90
45441;BME280;31189;38.790;-77.084;2023-07-13T01:57:42;101063.36;;;33.18;34.00
45441;BME280;31189;38.790;-77.084;2023-07-13T02:00:12;101062.31;;;33.12;34.08
45441;BME280;31189;38.790;-77.084;2023-07-13T02:02:33;101060.32;;;33.42;34.14
45441;BME280;31189;38.790;-77.084;2023-07-13T02:04:58;101064.15;;;33.07;34.15
45441;BME280;31189;38.790;-77.084;2023-07-13T02:07:24;101067.10;;;33.22;34.36
45441;BME280;31189;38.790;-77.084;2023-07-13T02:09:49;101065.42;;;33.20;34.94
45441;BME280;31189;38.790;-77.084;2023-07-13T02:12:14;101065.95;;;33.17;35.64
45441;BME280;31189;38.790;-77.084;2023-07-13T02:14:40;101064.42;;;33.10;35.70
45441;BME280;31189;38.790;-77.084;2023-07-13T02:17:05;101060.95;;;32.52;35.44
45441;BME280;31189;38.790;-77.084;2023-07-13T02:19:30;101061.12;;;32.71;35.22
45441;BME280;31189;38.790;-77.084;2023-07-13T02:21:55;101065.90;;;32.56;35.08
45441;BME280;31189;38.790;-77.084;2023-07-13T02:24:21;101067.67;;;32.53;35.20
45441;BME280;31189;38.790;-77.084;2023-07-13T02:26:46;101072.38;;;32.64;35.31
45441;BME280;31189;38.790;-77.084;2023-07-13T02:29:12;101075.38;;;32.61;35.38
45441;BME280;31189;38.790;-77.084;2023-07-13T02:31:37;101078.28;;;32.58;35.26
45441;BME280;31189;38.790;-77.084;2023-07-13T02:34:03;101079.45;;;32.63;35.17
45441;BME280;31189;38.790;-77.084;2023-07-13T02:36:28;101080.84;;;32.50;35.47
45441;BME280;31189;38.790;-77.084;2023-07-13T02:38:53;101084.52;;;32.58;35.63
45441;BME280;31189;38.790;-77.084;2023-07-13T02:41:19;101089.68;;;32.53;35.65
45441;BME280;31189;38.790;-77.084;2023-07-13T02:43:45;101088.18;;;32.33;36.20
45441;BME280;31189;38.790;-77.084;2023-07-13T02:46:10;101091.13;;;32.89;36.07
45441;BME280;31189;38.790;-77.084;2023-07-13T02:48:36;101091.62;;;32.34;36.30
45441;BME280;31189;38.790;-77.084;2023-07-13T02:51:00;101092.94;;;32.50;36.41
45441;BME280;31189;38.790;-77.084;2023-07-13T02:53:26;101089.77;;;31.94;36.90
45441;BME280;31189;38.790;-77.084;2023-07-13T02:55:51;101091.20;;;31.99;36.88
45441;BME280;31189;38.790;-77.084;2023-07-13T02:58:16;101093.05;;;31.97;36.84
45441;BME280;31189;38.790;-77.084;2023-07-13T03:00:41;101094.34;;;32.43;37.16
45441;BME280;31189;38.790;-77.084;2023-07-13T03:03:07;101096.63;;;32.14;37.35
45441;BME280;31189;38.790;-77.084;2023-07-13T03:05:32;101093.21;;;32.48;37.67
45441;BME280;31189;38.790;-77.084;2023-07-13T03:07:58;101092.51;;;32.10;37.86
45441;BME280;31189;38.790;-77.084;2023-07-13T03:10:23;101093.71;;;32.30;37.97
45441;BME280;31189;38.790;-77.084;2023-07-13T03:12:49;101094.28;;;31.90;38.38
45441;BME280;31189;38.790;-77.084;2023-07-13T03:15:15;101093.79;;;32.14;38.54
45441;BME280;31189;38.790;-77.084;2023-07-13T03:17:39;101094.23;;;32.40;38.97
45441;BME280;31189;38.790;-77.084;2023-07-13T03:20:06;101089.90;;;32.07;39.11
45441;BME280;31189;38.790;-77.084;2023-07-13T03:22:31;101090.98;;;32.00;39.00
45441;BME280;31189;38.790;-77.084;2023-07-13T03:24:56;101088.12;;;32.06;38.67
45441;BME280;31189;38.790;-77.084;2023-07-13T03:27:21;101083.74;;;31.81;38.87
45441;BME280;31189;38.790;-77.084;2023-07-13T03:29:46;101082.76;;;31.98;38.80
45441;BME280;31189;38.790;-77.084;2023-07-13T03:32:12;101074.69;;;31.79;38.90
45441;BME280;31189;38.790;-77.084;2023-07-13T03:34:37;101070.01;;;31.96;39.12
45441;BME280;31189;38.790;-77.084;2023-07-13T03:37:03;101068.01;;;31.54;39.55
45441;BME280;31189;38.790;-77.084;2023-07-13T03:39:28;101065.04;;;31.71;39.90
45441;BME280;31189;38.790;-77.084;2023-07-13T03:41:53;101062.82;;;31.57;40.21
45441;BME280;31189;38.790;-77.084;2023-07-13T03:44:18;101061.00;;;31.64;40.03
45441;BME280;31189;38.790;-77.084;2023-07-13T03:46:43;101059.27;;;31.58;39.98
45441;BME280;31189;38.790;-77.084;2023-07-13T03:49:09;101057.38;;;31.49;39.84
45441;BME280;31189;38.790;-77.084;2023-07-13T03:51:34;101052.55;;;31.56;39.76
45441;BME280;31189;38.790;-77.084;2023-07-13T03:54:00;101051.63;;;31.84;39.85
45441;BME280;31189;38.790;-77.084;2023-07-13T03:56:25;101051.01;;;31.81;39.85
45441;BME280;31189;38.790;-77.084;2023-07-13T03:58:51;101046.76;;;31.77;39.82
45441;BME280;31189;38.790;-77.084;2023-07-13T04:01:18;101042.20;;;31.76;39.71
45441;BME280;31189;38.790;-77.084;2023-07-13T04:03:41;101038.07;;;31.75;39.75
45441;BME280;31189;38.790;-77.084;2023-07-13T04:06:14;101034.21;;;31.50;39.60
45441;BME280;31189;38.790;-77.084;2023-07-13T04:08:32;101030.55;;;31.86;39.49
45441;BME280;31189;38.790;-77.084;2023-07-13T04:10:58;101026.43;;;31.80;39.41
45441;BME280;31189;38.790;-77.084;2023-07-13T04:13:23;101019.77;;;31.83;39.25
45441;BME280;31189;38.790;-77.084;2023-07-13T04:15:48;101012.81;;;31.81;39.27
45441;BME280;31189;38.790;-77.084;2023-07-13T04:18:13;101011.87;;;31.94;39.26
45441;BME280;31189;38.790;-77.084;2023-07-13T04:20:38;101010.78;;;31.92;39.11
45441;BME280;31189;38.790;-77.084;2023-07-13T04:23:04;101005.44;;;31.68;38.98
45441;BME280;31189;38.790;-77.084;2023-07-13T04:25:29;101001.39;;;31.79;38.98
45441;BME280;31189;38.790;-77.084;2023-07-13T04:27:55;101000.08;;;31.76;38.72
45441;BME280;31189;38.790;-77.084;2023-07-13T04:30:21;100995.66;;;31.62;38.87
45441;BME280;31189;38.790;-77.084;2023-07-13T04:32:46;100991.67;;;31.77;38.70
45441;BME280;31189;38.790;-77.084;2023-07-13T04:35:12;100992.70;;;31.77;39.06
45441;BME280;31189;38.790;-77.084;2023-07-13T04:37:37;100996.38;;;31.62;39.23
45441;BME280;31189;38.790;-77.084;2023-07-13T04:40:04;100999.91;;;31.63;39.42
45441;BME280;31189;38.790;-77.084;2023-07-13T04:42:29;100999.08;;;31.51;39.55
45441;BME280;31189;38.790;-77.084;2023-07-13T04:44:54;100997.86;;;31.65;39.44
45441;BME280;31189;38.790;-77.084;2023-07-13T04:47:20;101000.00;;;31.69;39.61
45441;BME280;31189;38.790;-77.084;2023-07-13T04:49:45;100996.57;;;31.72;39.71
45441;BME280;31189;38.790;-77.084;2023-07-13T04:52:10;100995.42;;;31.62;39.73
45441;BME280;31189;38.790;-77.084;2023-07-13T04:54:35;100996.91;;;31.64;39.61
45441;BME280;31189;38.790;-77.084;2023-07-13T04:57:00;100997.59;;;31.55;39.78
45441;BME280;31189;38.790;-77.084;2023-07-13T04:59:25;100991.90;;;31.34;40.09
45441;BME280;31189;38.790;-77.084;2023-07-13T05:01:51;100984.64;;;31.32;40.32
45441;BME280;31189;38.790;-77.084;2023-07-13T05:04:16;100982.07;;;31.21;40.32
45441;BME280;31189;38.790;-77.084;2023-07-13T05:06:42;100976.99;;;31.14;40.20
45441;BME280;31189;38.790;-77.084;2023-07-13T05:09:08;100977.55;;;31.18;40.32
45441;BME280;31189;38.790;-77.084;2023-07-13T05:11:33;100981.82;;;31.78;40.36
45441;BME280;31189;38.790;-77.084;2023-07-13T05:13:58;100979.33;;;31.47;41.28
45441;BME280;31189;38.790;-77.084;2023-07-13T05:16:23;100978.03;;;31.63;40.75
45441;BME280;31189;38.790;-77.084;2023-07-13T05:18:48;100982.65;;;30.92;41.08
45441;BME280;31189;38.790;-77.084;2023-07-13T05:21:14;100982.04;;;31.01;41.21
45441;BME280;31189;38.790;-77.084;2023-07-13T05:23:40;100979.04;;;31.21;41.30
45441;BME280;31189;38.790;-77.084;2023-07-13T05:26:05;100973.42;;;30.89;41.24
45441;BME280;31189;38.790;-77.084;2023-07-13T05:28:31;100971.65;;;30.94;41.02
45441;BME280;31189;38.790;-77.084;2023-07-13T05:30:56;100972.20;;;31.38;41.19
45441;BME280;31189;38.790;-77.084;2023-07-13T05:33:22;100967.72;;;31.13;41.22
45441;BME280;31189;38.790;-77.084;2023-07-13T05:35:47;100965.65;;;31.15;41.35
45441;BME280;31189;38.790;-77.084;2023-07-13T05:38:12;100964.94;;;30.87;41.46
45441;BME280;31189;38.790;-77.084;2023-07-13T05:40:38;100963.21;;;31.09;41.63
45441;BME280;31189;38.790;-77.084;2023-07-13T05:43:03;100963.54;;;31.26;41.62
45441;BME280;31189;38.790;-77.084;2023-07-13T05:45:29;100962.67;;;30.89;41.55
45441;BME280;31189;38.790;-77.084;2023-07-13T05:47:55;100961.18;;;31.31;41.73
45441;BME280;31189;38.790;-77.084;2023-07-13T05:50:20;100963.06;;;30.75;42.06
45441;BME280;31189;38.790;-77.084;2023-07-13T05:52:46;100960.60;;;31.13;42.40
45441;BME280;31189;38.790;-77.084;2023-07-13T05:55:11;100953.73;;;30.96;42.98
45441;BME280;31189;38.790;-77.084;2023-07-13T05:57:36;100947.21;;;30.41;43.62
45441;BME280;31189;38.790;-77.084;2023-07-13T06:00:02;100935.17;;;30.65;43.34
45441;BME280;31189;38.790;-77.084;2023-07-13T06:02:27;100935.15;;;30.79;43.01
45441;BME280;31189;38.790;-77.084;2023-07-13T06:04:53;100939.28;;;30.63;43.28
45441;BME280;31189;38.790;-77.084;2023-07-13T06:07:19;100941.19;;;30.79;43.07
45441;BME280;31189;38.790;-77.084;2023-07-13T06:09:44;100941.73;;;30.47;43.35
45441;BME280;31189;38.790;-77.084;2023-07-13T06:12:10;100938.81;;;30.91;43.20
45441;BME280;31189;38.790;-77.084;2023-07-13T06:14:35;100941.15;;;30.71;43.09
45441;BME280;31189;38.790;-77.084;2023-07-13T06:17:01;100941.51;;;30.79;43.17
45441;BME280;31189;38.790;-77.084;2023-07-13T06:19:26;100935.99;;;30.57;43.29
45441;BME280;31189;38.790;-77.084;2023-07-13T06:21:51;100929.47;;;31.00;43.45
45441;BME280;31189;38.790;-77.084;2023-07-13T06:24:17;100925.17;;;31.11;43.50
45441;BME280;31189;38.790;-77.084;2023-07-13T06:26:42;100925.11;;;31.11;43.75
45441;BME280;31189;38.790;-77.084;2023-07-13T06:29:08;100928.17;;;31.18;44.34
45441;BME280;31189;38.790;-77.084;2023-07-13T06:31:33;100930.75;;;31.08;44.79
45441;BME280;31189;38.790;-77.084;2023-07-13T06:33:58;100924.12;;;31.06;44.43
45441;BME280;31189;38.790;-77.084;2023-07-13T06:36:24;100919.31;;;30.81;44.49
45441;BME280;31189;38.790;-77.084;2023-07-13T06:38:49;100919.12;;;30.96;44.63
45441;BME280;31189;38.790;-77.084;2023-07-13T06:41:15;100914.72;;;31.00;44.76
45441;BME280;31189;38.790;-77.084;2023-07-13T06:43:40;100916.43;;;30.95;44.99
45441;BME280;31189;38.790;-77.084;2023-07-13T06:46:05;100917.25;;;30.90;44.95
45441;BME280;31189;38.790;-77.084;2023-07-13T06:48:31;100916.58;;;30.97;45.17
45441;BME280;31189;38.790;-77.084;2023-07-13T06:50:56;100913.80;;;30.98;46.11
45441;BME280;31189;38.790;-77.084;2023-07-13T06:53:22;100910.58;;;30.77;46.50
45441;BME280;31189;38.790;-77.084;2023-07-13T06:55:48;100912.15;;;30.84;45.91
45441;BME280;31189;38.790;-77.084;2023-07-13T06:58:14;100914.68;;;30.75;45.65
45441;BME280;31189;38.790;-77.084;2023-07-13T07:00:39;100915.91;;;30.73;45.65
45441;BME280;31189;38.790;-77.084;2023-07-13T07:03:04;100914.37;;;30.70;45.95
45441;BME280;31189;38.790;-77.084;2023-07-13T07:05:29;100912.78;;;30.71;46.55
45441;BME280;31189;38.790;-77.084;2023-07-13T07:07:55;100913.69;;;30.40;46.10
45441;BME280;31189;38.790;-77.084;2023-07-13T07:10:20;100917.71;;;30.66;46.10
45441;BME280;31189;38.790;-77.084;2023-07-13T07:12:45;100922.93;;;30.66;46.00
45441;BME280;31189;38.790;-77.084;2023-07-13T07:15:11;100922.87;;;30.58;46.24
45441;BME280;31189;38.790;-77.084;2023-07-13T07:17:36;100919.68;;;30.38;46.39
45441;BME280;31189;38.790;-77.084;2023-07-13T07:20:01;100917.97;;;30.29;46.56
45441;BME280;31189;38.790;-77.084;2023-07-13T07:22:27;100922.47;;;30.07;46.86
45441;BME280;31189;38.790;-77.084;2023-07-13T07:24:52;100921.47;;;30.44;46.67
45441;BME280;31189;38.790;-77.084;2023-07-13T07:27:18;100921.22;;;30.17;46.67
45441;BME280;31189;38.790;-77.084;2023-07-13T07:29:43;100926.10;;;30.06;46.77
45441;BME280;31189;38.790;-77.084;2023-07-13T07:32:09;100923.53;;;30.45;46.62
45441;BME280;31189;38.790;-77.084;2023-07-13T07:34:34;100922.53;;;30.21;46.54
45441;BME280;31189;38.790;-77.084;2023-07-13T07:37:01;100922.99;;;29.96;47.22
45441;BME280;31189;38.790;-77.084;2023-07-13T07:39:25;100924.39;;;30.16;46.77
45441;BME280;31189;38.790;-77.084;2023-07-13T07:41:50;100924.94;;;30.27;46.86
45441;BME280;31189;38.790;-77.084;2023-07-13T07:44:15;100916.70;;;30.25;46.58
45441;BME280;31189;38.790;-77.084;2023-07-13T07:46:41;100915.69;;;30.24;46.68
45441;BME280;31189;38.790;-77.084;2023-07-13T07:49:06;100918.51;;;30.74;47.88
45441;BME280;31189;38.790;-77.084;2023-07-13T07:51:32;100920.85;;;30.45;48.44
45441;BME280;31189;38.790;-77.084;2023-07-13T07:53:58;100918.93;;;30.27;48.59
45441;BME280;31189;38.790;-77.084;2023-07-13T07:56:23;100922.52;;;30.22;48.01
45441;BME280;31189;38.790;-77.084;2023-07-13T07:58:49;100925.83;;;30.15;47.94
45441;BME280;31189;38.790;-77.084;2023-07-13T08:01:14;100930.00;;;30.53;48.14
45441;BME280;31189;38.790;-77.084;2023-07-13T08:03:39;100931.21;;;30.45;48.75
45441;BME280;31189;38.790;-77.084;2023-07-13T08:06:05;100928.41;;;30.18;48.77
45441;BME280;31189;38.790;-77.084;2023-07-13T08:08:30;100928.24;;;30.40;48.60
45441;BME280;31189;38.790;-77.084;2023-07-13T08:10:56;100930.64;;;30.18;49.55
45441;BME280;31189;38.790;-77.084;2023-07-13T08:13:21;100932.54;;;29.77;49.21
45441;BME280;31189;38.790;-77.084;2023-07-13T08:15:47;100931.05;;;29.97;49.09
45441;BME280;31189;38.790;-77.084;2023-07-13T08:18:12;100934.00;;;29.92;49.36
45441;BME280;31189;38.790;-77.084;2023-07-13T08:20:38;100939.32;;;30.14;49.43
45441;BME280;31189;38.790;-77.084;2023-07-13T08:23:02;100939.82;;;29.83;49.66
45441;BME280;31189;38.790;-77.084;2023-07-13T08:25:28;100937.91;;;29.71;49.83
45441;BME280;31189;38.790;-77.084;2023-07-13T08:27:53;100937.98;;;29.59;50.47
45441;BME280;31189;38.790;-77.084;2023-07-13T08:30:18;100944.81;;;29.62;50.50
45441;BME280;31189;38.790;-77.084;2023-07-13T08:32:43;100947.12;;;29.88;50.31
45441;BME280;31189;38.790;-77.084;2023-07-13T08:35:09;100945.45;;;29.84;50.44
45441;BME280;31189;38.790;-77.084;2023-07-13T08:37:34;100946.25;;;29.74;50.47
45441;BME280;31189;38.790;-77.084;2023-07-13T08:40:00;100942.84;;;29.75;50.91
45441;BME280;31189;38.790;-77.084;2023-07-13T08:42:32;100947.34;;;29.67;50.81
45441;BME280;31189;38.790;-77.084;2023-07-13T08:44:58;100942.81;;;29.51;50.40
45441;BME280;31189;38.790;-77.084;2023-07-13T08:47:17;100935.44;;;29.72;50.62
45441;BME280;31189;38.790;-77.084;2023-07-13T08:49:43;100936.22;;;29.62;51.25
45441;BME280;31189;38.790;-77.084;2023-07-13T08:52:12;100941.61;;;29.55;52.04
45441;BME280;31189;38.790;-77.084;2023-07-13T08:54:36;100944.75;;;29.43;51.70
45441;BME280;31189;38.790;-77.084;2023-07-13T08:57:02;100947.34;;;29.25;51.83
45441;BME280;31189;38.790;-77.084;2023-07-13T08:59:27;100946.38;;;29.13;52.23
45441;BME280;31189;38.790;-77.084;2023-07-13T09:02:04;100943.36;;;29.07;52.25
45441;BME280;31189;38.790;-77.084;2023-07-13T09:04:18;100937.38;;;29.06;52.32
45441;BME280;31189;38.790;-77.084;2023-07-13T09:07:01;100933.20;;;29.01;52.44
45441;BME280;31189;38.790;-77.084;2023-07-13T09:09:09;100931.67;;;28.96;52.48
45441;BME280;31189;38.790;-77.084;2023-07-13T09:11:42;100926.52;;;28.91;52.72
45441;BME280;31189;38.790;-77.084;2023-07-13T09:14:02;100923.19;;;29.37;53.07
45441;BME280;31189;38.790;-77.084;2023-07-13T09:16:22;100923.39;;;28.90;53.00
45441;BME280;31189;38.790;-77.084;2023-07-13T09:18:49;100922.17;;;29.57;52.67
45441;BME280;31189;38.790;-77.084;2023-07-13T09:21:14;100920.53;;;29.06;52.57
45441;BME280;31189;38.790;-77.084;2023-07-13T09:23:38;100922.37;;;29.13;52.35
45441;BME280;31189;38.790;-77.084;2023-07-13T09:26:06;100921.50;;;29.15;52.07
45441;BME280;31189;38.790;-77.084;2023-07-13T09:28:33;100922.68;;;29.32;52.39
45441;BME280;31189;38.790;-77.084;2023-07-13T09:31:00;100920.14;;;29.05;52.39
45441;BME280;31189;38.790;-77.084;2023-07-13T09:33:19;100920.98;;;29.02;52.65
45441;BME280;31189;38.790;-77.084;2023-07-13T09:35:45;100923.69;;;29.47;52.75
45441;BME280;31189;38.790;-77.084;2023-07-13T09:38:13;100928.62;;;28.96;52.75
45441;BME280;31189;38.790;-77.084;2023-07-13T09:40:44;100929.01;;;29.09;53.01
45441;BME280;31189;38.790;-77.084;2023-07-13T09:43:01;100927.90;;;28.88;53.23
45441;BME280;31189;38.790;-77.084;2023-07-13T09:45:29;100927.66;;;29.11;53.39
45441;BME280;31189;38.790;-77.084;2023-07-13T09:48:04;100925.42;;;28.90;53.10
45441;BME280;31189;38.790;-77.084;2023-07-13T09:50:17;100921.33;;;29.29;53.42
45441;BME280;31189;38.790;-77.084;2023-07-13T09:52:46;100918.42;;;28.83;53.15
45441;BME280;31189;38.790;-77.084;2023-07-13T09:57:33;100909.80;;;28.42;53.98
45441;BME280;31189;38.790;-77.084;2023-07-13T09:59:59;100907.38;;;28.70;53.74
45441;BME280;31189;38.790;-77.084;2023-07-13T10:02:26;100902.71;;;29.14;53.94
45441;BME280;31189;38.790;-77.084;2023-07-13T10:04:56;100903.94;;;28.62;54.44
45441;BME280;31189;38.790;-77.084;2023-07-13T10:07:15;100903.77;;;28.66;54.85
45441;BME280;31189;38.790;-77.084;2023-07-13T10:09:40;100905.79;;;28.83;55.10
45441;BME280;31189;38.790;-77.084;2023-07-13T10:12:14;100903.14;;;29.03;55.04
45441;BME280;31189;38.790;-77.084;2023-07-13T10:14:31;100904.51;;;28.83;54.79
45441;BME280;31189;38.790;-77.084;2023-07-13T10:17:00;100909.27;;;28.86;55.07
45441;BME280;31189;38.790;-77.084;2023-07-13T10:19:24;100908.55;;;28.60;55.14
45441;BME280;31189;38.790;-77.084;2023-07-13T10:21:53;100905.11;;;28.65;54.93
45441;BME280;31189;38.790;-77.084;2023-07-13T10:24:17;100902.08;;;28.92;55.31
45441;BME280;31189;38.790;-77.084;2023-07-13T10:26:42;100905.65;;;28.51;55.08
45441;BME280;31189;38.790;-77.084;2023-07-13T10:29:06;100909.24;;;28.51;54.81
45441;BME280;31189;38.790;-77.084;2023-07-13T10:31:30;100912.52;;;28.64;54.24
45441;BME280;31189;38.790;-77.084;2023-07-13T10:33:55;100913.79;;;29.14;54.43
45441;BME280;31189;38.790;-77.084;2023-07-13T10:36:29;100918.76;;;28.56;55.04
45441;BME280;31189;38.790;-77.084;2023-07-13T10:38:47;100929.11;;;28.29;55.33
45441;BME280;31189;38.790;-77.084;2023-07-13T10:41:14;100930.12;;;28.30;56.56
45441;BME280;31189;38.790;-77.084;2023-07-13T10:43:41;100923.14;;;28.27;56.15
45441;BME280;31189;38.790;-77.084;2023-07-13T10:46:02;100922.99;;;28.35;56.70
45441;BME280;31189;38.790;-77.084;2023-07-13T10:48:27;100929.79;;;27.57;58.49
45441;BME280;31189;38.790;-77.084;2023-07-13T10:50:53;100931.43;;;27.94;57.19
45441;BME280;31189;38.790;-77.084;2023-07-13T10:53:20;100929.91;;;28.40;56.65
45441;BME280;31189;38.790;-77.084;2023-07-13T10:55:55;100928.04;;;29.02;55.35
45441;BME280;31189;38.790;-77.084;2023-07-13T10:58:15;100928.22;;;27.61;57.88
45441;BME280;31189;38.790;-77.084;2023-07-13T11:00:43;100925.47;;;27.64;58.09
45441;BME280;31189;38.790;-77.084;2023-07-13T11:03:00;100929.69;;;28.07;57.33
45441;BME280;31189;38.790;-77.084;2023-07-13T11:05:28;100926.51;;;28.62;55.53
45441;BME280;31189;38.790;-77.084;2023-07-13T11:07:54;100924.88;;;27.75;58.28
45441;BME280;31189;38.790;-77.084;2023-07-13T11:12:53;100925.72;;;28.50;56.14
45441;BME280;31189;38.790;-77.084;2023-07-13T11:15:11;100927.77;;;28.39;56.42
45441;BME280;31189;38.790;-77.084;2023-07-13T11:17:36;100926.86;;;28.15;57.33
45441;BME280;31189;38.790;-77.084;2023-07-13T11:22:26;100926.30;;;28.84;56.27
45441;BME280;31189;38.790;-77.084;2023-07-13T11:24:56;100930.27;;;29.04;55.43
45441;BME280;31189;38.790;-77.084;2023-07-13T11:27:25;100936.80;;;29.21;54.59
45441;BME280;31189;38.790;-77.084;2023-07-13T11:29:39;100937.42;;;28.89;56.14
45441;BME280;31189;38.790;-77.084;2023-07-13T11:34:35;100945.58;;;27.99;58.73
45441;BME280;31189;38.790;-77.084;2023-07-13T11:36:57;100940.43;;;29.51;54.97
45441;BME280;31189;38.790;-77.084;2023-07-13T11:39:27;100941.51;;;29.50;55.22
45441;BME280;31189;38.790;-77.084;2023-07-13T11:41:51;100943.62;;;29.35;55.19
45441;BME280;31189;38.790;-77.084;2023-07-13T11:44:15;100950.36;;;28.53;57.94
45441;BME280;31189;38.790;-77.084;2023-07-13T11:46:38;100946.15;;;28.18;59.11
45441;BME280;31189;38.790;-77.084;2023-07-13T11:49:05;100945.94;;;29.22;56.77
45441;BME280;31189;38.790;-77.084;2023-07-13T11:51:31;100948.78;;;28.97;58.36
45441;BME280;31189;38.790;-77.084;2023-07-13T11:53:55;100950.18;;;29.03;58.45
45441;BME280;31189;38.790;-77.084;2023-07-13T11:56:19;100946.75;;;28.32;59.82
45441;BME280;31189;38.790;-77.084;2023-07-13T11:58:47;100941.95;;;29.56;57.09
45441;BME280;31189;38.790;-77.084;2023-07-13T12:01:17;100950.06;;;29.04;58.49
45441;BME280;31189;38.790;-77.084;2023-07-13T12:03:40;100946.30;;;27.49;63.17
45441;BME280;31189;38.790;-77.084;2023-07-13T12:06:02;100942.81;;;29.23;57.83
45441;BME280;31189;38.790;-77.084;2023-07-13T12:08:26;100941.97;;;29.35;57.07
45441;BME280;31189;38.790;-77.084;2023-07-13T12:10:58;100940.34;;;29.60;56.31
45441;BME280;31189;38.790;-77.084;2023-07-13T12:13:17;100940.19;;;29.49;56.11
45441;BME280;31189;38.790;-77.084;2023-07-13T12:15:45;100940.36;;;28.77;57.49
45441;BME280;31189;38.790;-77.084;2023-07-13T12:18:14;100940.96;;;30.10;54.90
45441;BME280;31189;38.790;-77.084;2023-07-13T12:20:38;100946.72;;;30.35;54.65
45441;BME280;31189;38.790;-77.084;2023-07-13T12:22:58;100946.01;;;29.99;54.87
45441;BME280;31189;38.790;-77.084;2023-07-13T12:25:24;100951.36;;;30.03;54.88
45441;BME280;31189;38.790;-77.084;2023-07-13T12:27:50;100951.65;;;28.17;59.42
45441;BME280;31189;38.790;-77.084;2023-07-13T12:30:24;100952.95;;;28.28;60.60